Time;durP1;ratioP1;P1;durP2;ratioP2;P2;SDS_P1;SDS_P2;PMS_P1;PMS_P2;Temp;Humidity;BMP_temperature;BMP_pressure;BME280_temperature;BME280_humidity;BME280_pressure;Samples;Min_cycle;Max_cycle;Signal;HPM_P1;HPM_P2
2022/11/18 00:03:00;;;;;;;30.85;18.60;;;;;;;5.41;100.00;99699.78;10585306;27;20039;-73
2022/11/18 00:08:01;;;;;;;27.42;17.33;;;;;;;5.55;100.00;99721.31;10566894;28;20039;-72
2022/11/18 00:18:20;;;;;;;36.30;18.00;;;;;;;5.48;100.00;99718.75;10573995;27;20035;-72
2022/11/18 00:23:21;;;;;;;33.30;18.33;;;;;;;5.52;100.00;99727.25;10597893;27;20035;-73
2022/11/18 00:28:21;;;;;;;33.20;18.48;;;;;;;5.53;100.00;99734.38;10596682;27;20036;-73
2022/11/18 00:33:22;;;;;;;38.38;19.77;;;;;;;5.55;100.00;99743.16;10582515;28;20035;-72
2022/11/18 00:38:23;;;;;;;39.15;20.38;;;;;;;5.44;100.00;99731.25;10566174;28;20031;-72
2022/11/18 00:43:23;;;;;;;37.63;20.08;;;;;;;5.36;100.00;99723.47;10566921;28;20027;-72
2022/11/18 00:48:24;;;;;;;42.47;21.58;;;;;;;5.35;100.00;99739.00;10585810;27;20081;-72
2022/11/18 00:53:25;;;;;;;36.00;20.25;;;;;;;5.54;100.00;99783.28;10539642;28;20051;-72
2022/11/18 00:58:26;;;;;;;36.50;18.63;;;;;;;5.51;100.00;99786.50;10540133;28;20028;-72
2022/11/18 01:03:27;;;;;;;33.88;18.95;;;;;;;5.50;100.00;99792.19;10524314;28;20048;-71
2022/11/18 01:08:27;;;;;;;39.58;19.20;;;;;;;5.39;100.00;99783.00;10542532;28;20789;-72
2022/11/18 01:13:28;;;;;;;37.53;19.17;;;;;;;5.41;100.00;99794.50;10548691;28;20070;-73
2022/11/18 01:18:29;;;;;;;35.20;18.15;;;;;;;5.35;100.00;99788.13;10588943;27;20043;-72
2022/11/18 01:23:30;;;;;;;37.72;19.13;;;;;;;5.20;100.00;99771.50;10632854;27;20103;-72
2022/11/18 01:28:30;;;;;;;36.15;18.63;;;;;;;5.38;100.00;99804.03;10635185;27;20054;-73
2022/11/18 01:33:31;;;;;;;34.85;18.30;;;;;;;5.36;100.00;99806.16;10635125;27;20562;-73
2022/11/18 01:38:31;;;;;;;36.25;18.85;;;;;;;5.35;100.00;99818.16;10615627;27;20062;-72
2022/11/18 01:43:58;;;;;;;33.60;18.83;;;;;;;5.27;100.00;99799.44;10627674;27;20027;-72
2022/11/18 01:49:05;;;;;;;37.15;19.73;;;;;;;5.28;100.00;99803.03;10556391;27;20051;-73
2022/11/18 01:54:12;;;;;;;39.25;21.13;;;;;;;5.31;100.00;99814.25;10570753;27;20055;-73
2022/11/18 01:59:14;;;;;;;40.25;21.95;;;;;;;5.30;100.00;99822.72;10538757;27;20118;-73
2022/11/18 02:04:14;;;;;;;42.88;20.75;;;;;;;5.25;100.00;99826.19;10588557;27;20044;-74
2022/11/18 02:09:15;;;;;;;45.85;21.50;;;;;;;5.23;100.00;99842.78;10587790;27;20047;-73
2022/11/18 02:14:16;;;;;;;42.90;22.60;;;;;;;5.21;100.00;99853.13;10555887;27;20313;-72
2022/11/18 02:19:35;;;;;;;41.08;19.35;;;;;;;5.19;100.00;99862.63;10571125;27;20039;-73
2022/11/18 02:24:54;;;;;;;37.95;19.38;;;;;;;5.19;100.00;99860.72;10587655;27;20553;-73
2022/11/18 02:30:01;;;;;;;43.08;21.38;;;;;;;5.05;100.00;99849.25;10590066;27;20047;-73
2022/11/18 02:35:12;;;;;;;38.70;21.05;;;;;;;5.07;100.00;99864.56;10572905;27;20062;-72
2022/11/18 02:40:16;;;;;;;37.47;20.35;;;;;;;5.15;100.00;99875.09;10572849;27;20035;-72
2022/11/18 02:45:17;;;;;;;40.30;20.40;;;;;;;5.03;100.00;99851.41;10587674;27;20043;-74
2022/11/18 02:50:20;;;;;;;40.63;22.98;;;;;;;5.14;100.00;99873.44;10579094;27;20095;-73
2022/11/18 02:55:21;;;;;;;35.38;20.40;;;;;;;5.09;100.00;99870.63;10559303;28;20390;-73
2022/11/18 03:00:21;;;;;;;33.95;20.98;;;;;;;4.93;100.00;99867.56;10544575;28;20028;-73
2022/11/18 03:05:38;;;;;;;42.10;20.52;;;;;;;5.06;100.00;99893.72;10529053;28;20044;-72
2022/11/18 03:10:48;;;;;;;37.92;21.80;;;;;;;5.04;100.00;99884.97;10545042;28;20028;-73
2022/11/18 03:15:58;;;;;;;35.60;20.15;;;;;;;5.04;100.00;99888.53;10527912;28;20028;-72
2022/11/18 03:21:05;;;;;;;36.08;19.58;;;;;;;5.08;100.00;99898.94;10561023;27;20453;-74
2022/11/18 03:26:18;;;;;;;37.65;20.08;;;;;;;5.05;100.00;99898.38;10569457;27;20039;-72
2022/11/18 03:31:49;;;;;;;36.08;20.08;;;;;;;5.02;100.00;99898.00;10586695;27;20046;-72
2022/11/18 03:36:51;;;;;;;38.70;20.63;;;;;;;5.00;100.00;99894.69;10566891;27;20038;-73
2022/11/18 03:42:01;;;;;;;34.83;18.80;;;;;;;4.99;100.00;99902.06;10584884;27;20060;-73
2022/11/18 03:47:11;;;;;;;31.60;19.10;;;;;;;4.92;100.00;99909.56;10550741;27;20040;-73
2022/11/18 03:52:23;;;;;;;33.55;16.90;;;;;;;4.95;100.00;99917.25;10584357;27;20036;-73
2022/11/18 03:57:33;;;;;;;33.10;18.20;;;;;;;4.83;100.00;99905.53;10567960;27;20096;-72
2022/11/18 04:02:34;;;;;;;28.42;16.95;;;;;;;4.93;100.00;99938.47;10584705;27;20036;-72
2022/11/18 04:07:57;;;;;;;31.98;16.55;;;;;;;4.78;100.00;99924.53;10586117;27;20044;-72
2022/11/18 04:13:04;;;;;;;27.15;15.55;;;;;;;4.86;100.00;99937.78;10567773;27;20507;-73
2022/11/18 04:18:05;;;;;;;24.13;13.95;;;;;;;4.90;100.00;99952.63;10569097;27;20032;-72
2022/11/18 04:23:05;;;;;;;25.85;15.15;;;;;;;4.87;100.00;99941.34;10581632;27;20031;-72
2022/11/18 04:28:06;;;;;;;31.05;15.13;;;;;;;4.94;100.00;99961.97;10583120;27;20032;-72
2022/11/18 04:33:06;;;;;;;25.00;14.75;;;;;;;4.89;100.00;99963.75;10566666;28;20035;-72
2022/11/18 04:38:07;;;;;;;27.70;14.00;;;;;;;4.94;100.00;99969.31;10566126;27;20062;-73
2022/11/18 04:43:07;;;;;;;24.98;14.75;;;;;;;4.86;100.00;99967.78;10583745;28;20410;-72
2022/11/18 04:48:08;;;;;;;29.00;14.15;;;;;;;4.91;100.00;99984.25;10584822;27;20417;-72
2022/11/18 04:53:08;;;;;;;39.38;15.73;;;;;;;4.90;100.00;99993.53;10584024;28;20047;-72
2022/11/18 04:58:10;;;;;;;29.45;14.45;;;;;;;4.51;100.00;99935.94;10584118;28;20071;-73
2022/11/18 05:03:11;;;;;;;30.98;14.13;;;;;;;4.89;100.00;100001.94;10582865;28;20044;-69
2022/11/18 05:08:11;;;;;;;26.42;14.65;;;;;;;4.91;100.00;100003.34;10566389;28;20055;-73
2022/11/18 05:13:12;;;;;;;30.52;14.80;;;;;;;4.88;100.00;100011.16;10565602;28;20479;-72
2022/11/18 05:18:12;;;;;;;29.77;14.15;;;;;;;4.93;100.00;100024.94;10583515;28;20054;-72
2022/11/18 05:23:13;;;;;;;33.75;14.48;;;;;;;4.88;100.00;100016.63;10547534;28;20063;-72
2022/11/18 05:28:13;;;;;;;32.60;15.52;;;;;;;4.83;100.00;100015.44;10564817;28;20032;-72
2022/11/18 05:33:13;;;;;;;32.35;15.55;;;;;;;4.81;100.00;100011.31;10582270;28;20039;-72
2022/11/18 05:38:14;;;;;;;31.67;15.93;;;;;;;4.90;100.00;100025.41;10581679;28;20044;-73
2022/11/18 05:43:14;;;;;;;30.77;16.77;;;;;;;4.85;100.00;100045.22;10584082;28;20035;-72
2022/11/18 05:48:15;;;;;;;34.22;16.80;;;;;;;4.84;100.00;100041.66;10582160;28;20047;-70
2022/11/18 05:53:16;;;;;;;39.88;17.67;;;;;;;4.84;100.00;100049.03;10583508;28;20047;-73
2022/11/18 05:58:16;;;;;;;35.03;17.67;;;;;;;4.68;100.00;100023.28;10568020;27;20047;-72
2022/11/18 06:03:23;;;;;;;37.90;15.45;;;;;;;4.76;100.00;100052.09;10588344;27;20381;-73
2022/11/18 06:08:24;;;;;;;;;;;;;;;4.84;100.00;100068.13;10591339;27;20035;-72
2022/11/18 06:13:30;;;;;;;49.92;20.67;;;;;;;4.81;100.00;100071.28;10588992;27;19961;-73
2022/11/18 06:18:31;;;;;;;42.38;20.52;;;;;;;4.71;100.00;100077.31;10591034;27;20031;-73
2022/11/18 06:23:33;;;;;;;43.20;21.88;;;;;;;4.77;100.00;100092.75;10571524;27;20032;-72
2022/11/18 06:28:34;;;;;;;48.13;20.63;;;;;;;4.65;100.00;100081.00;10588469;27;20036;-73
2022/11/18 06:33:35;;;;;;;46.65;21.98;;;;;;;4.75;100.00;100111.25;10589784;27;20039;-73
2022/11/18 06:38:35;;;;;;;44.97;23.98;;;;;;;4.70;100.00;100124.75;10589788;27;20046;-73
2022/11/18 06:43:40;;;;;;;46.72;21.38;;;;;;;4.65;100.00;100132.78;10571542;27;20042;-72
2022/11/18 06:48:40;;;;;;;41.83;21.17;;;;;;;4.58;100.00;100132.91;10588734;27;20051;-72
2022/11/18 06:53:41;;;;;;;41.35;20.98;;;;;;;4.60;100.00;100147.13;10601118;27;20035;-72
2022/11/18 06:58:42;;;;;;;42.40;20.23;;;;;;;4.65;100.00;100155.47;10617035;27;20034;-72
2022/11/18 07:03:43;;;;;;;41.58;22.27;;;;;;;4.51;100.00;100142.25;10609741;27;20039;-73
2022/11/18 07:08:44;;;;;;;44.20;22.65;;;;;;;4.54;100.00;100166.31;10610478;27;20039;-73
2022/11/18 07:13:44;;;;;;;42.05;20.45;;;;;;;4.49;100.00;100167.03;10594151;27;20051;-73
2022/11/18 07:18:45;;;;;;;43.03;20.98;;;;;;;4.56;100.00;100189.56;10580362;27;20067;-72
2022/11/18 07:23:46;;;;;;;47.13;21.75;;;;;;;4.44;100.00;100178.63;10582756;28;20040;-72
2022/11/18 07:28:46;;;;;;;48.15;23.15;;;;;;;4.41;100.00;100192.69;10583546;28;20032;-72
2022/11/18 07:33:47;;;;;;;47.00;21.48;;;;;;;4.39;100.00;100200.28;10583491;28;20038;-73
2022/11/18 07:38:47;;;;;;;43.05;20.27;;;;;;;4.39;100.00;100204.91;10584018;27;20439;-69
2022/11/18 07:43:49;;;;;;;48.33;22.80;;;;;;;4.40;100.00;100203.81;10586210;27;20035;-72
2022/11/18 07:48:50;;;;;;;48.63;22.52;;;;;;;4.42;100.00;100204.41;10585380;27;20028;-72
2022/11/18 07:53:51;;;;;;;42.78;20.17;;;;;;;4.39;100.00;100215.81;10539729;28;20036;-72
2022/11/18 07:58:53;;;;;;;46.40;21.50;;;;;;;4.39;100.00;100216.63;10541521;28;20104;-73
2022/11/18 08:03:53;;;;;;;49.15;21.58;;;;;;;4.03;100.00;100172.03;10541847;28;20032;-73
2022/11/18 08:08:54;;;;;;;47.75;22.23;;;;;;;4.43;100.00;100236.09;10557719;28;20040;-73
2022/11/18 08:13:54;;;;;;;45.85;22.38;;;;;;;4.43;100.00;100244.25;10542648;28;20032;-73
2022/11/18 08:18:55;;;;;;;47.80;21.67;;;;;;;4.42;100.00;100248.88;10552250;28;20036;-73
2022/11/18 08:23:56;;;;;;;46.25;19.73;;;;;;;4.37;100.00;100253.34;10580238;27;20058;-74
2022/11/18 08:28:56;;;;;;;47.33;21.58;;;;;;;4.32;100.00;100261.38;10582896;28;20118;-74
2022/11/18 08:34:06;;;;;;;44.90;21.83;;;;;;;4.29;100.00;100259.09;10581340;27;20032;-73
2022/11/18 08:39:07;;;;;;;47.67;21.52;;;;;;;4.30;100.00;100272.50;10565391;28;20036;-72
2022/11/18 08:44:14;;;;;;;51.05;23.15;;;;;;;4.24;100.00;100265.25;10558035;28;20125;-74
2022/11/18 08:49:15;;;;;;;49.67;20.63;;;;;;;4.33;100.00;100282.94;10562502;28;20088;-73
2022/11/18 08:54:15;;;;;;;42.42;20.83;;;;;;;4.36;100.00;100284.38;10559636;28;20055;-73
2022/11/18 08:59:16;;;;;;;42.28;19.92;;;;;;;4.45;100.00;100292.03;10557904;28;20033;-74
2022/11/18 09:04:17;;;;;;;49.15;21.77;;;;;;;4.53;100.00;100295.50;10562553;28;20051;-73
2022/11/18 09:09:17;;;;;;;45.25;19.77;;;;;;;4.49;100.00;100286.97;10544812;28;20040;-72
2022/11/18 09:14:18;;;;;;;45.92;20.35;;;;;;;4.47;100.00;100305.44;10547183;28;20058;-73
2022/11/18 09:19:18;;;;;;;46.47;21.50;;;;;;;4.42;100.00;100313.44;10549707;28;20506;-72
2022/11/18 09:24:19;;;;;;;36.60;18.25;;;;;;;4.43;100.00;100326.03;10557047;28;20036;-74
2022/11/18 09:29:24;;;;;;;37.08;18.67;;;;;;;4.27;100.00;100305.66;10557987;28;20036;-70
2022/11/18 09:34:24;;;;;;;40.85;18.23;;;;;;;4.32;100.00;100329.50;10566983;27;20087;-73
2022/11/18 09:39:25;;;;;;;37.28;16.88;;;;;;;4.22;100.00;100330.84;10567256;27;20031;-72
2022/11/18 09:44:37;;;;;;;35.10;18.10;;;;;;;4.34;100.00;100355.47;10557151;28;20715;-73
2022/11/18 09:49:39;;;;;;;38.45;18.85;;;;;;;4.21;100.00;100367.31;10570947;27;20123;-73
2022/11/18 09:54:40;;;;;;;40.97;20.50;;;;;;;4.12;100.00;100368.69;10550006;27;20047;-73
2022/11/18 09:59:40;;;;;;;49.50;22.42;;;;;;;4.15;100.00;100378.28;10545975;27;20036;-74
2022/11/18 10:04:41;;;;;;;52.03;21.65;;;;;;;4.07;100.00;100370.41;10540792;27;20071;-73
2022/11/18 10:09:41;;;;;;;47.97;23.17;;;;;;;4.07;100.00;100382.13;10570178;27;20039;-73
2022/11/18 10:14:41;;;;;;;59.58;24.65;;;;;;;4.05;100.00;100389.69;10569737;27;20388;-73
2022/11/18 10:19:50;;;;;;;55.08;23.05;;;;;;;4.03;100.00;100391.81;10588124;27;20065;-73
2022/11/18 10:24:52;;;;;;;52.10;24.60;;;;;;;3.92;100.00;100378.94;10569696;28;20050;-73
2022/11/18 10:29:55;;;;;;;48.92;21.42;;;;;;;3.90;100.00;100383.75;10586484;27;20346;-73
2022/11/18 10:34:56;;;;;;;44.78;20.98;;;;;;;4.04;100.00;100410.66;10535711;27;20115;-74
2022/11/18 10:39:58;;;;;;;40.72;20.02;;;;;;;4.04;100.00;100415.28;10584973;27;20490;-74
2022/11/18 10:45:16;;;;;;;47.08;20.63;;;;;;;3.89;100.00;100418.34;10584065;27;20031;-73
2022/11/18 10:50:46;;;;;;;47.17;21.45;;;;;;;3.78;100.00;100438.94;10585149;27;20055;-74
2022/11/18 10:55:55;;;;;;;43.33;20.52;;;;;;;3.82;100.00;100434.75;10567562;27;20039;-74
2022/11/18 11:01:23;;;;;;;52.97;21.15;;;;;;;3.77;100.00;100440.00;10585772;27;20050;-74
2022/11/18 11:06:29;;;;;;;46.80;21.02;;;;;;;3.76;100.00;100435.63;10558830;28;20036;-76
2022/11/18 11:11:38;;;;;;;43.75;20.92;;;;;;;3.82;100.00;100451.06;10563547;27;20494;-74
2022/11/18 11:17:07;;;;;;;43.33;18.88;;;;;;;3.72;100.00;100439.84;10586046;27;20070;-74
2022/11/18 11:22:10;;;;;;;43.30;21.30;;;;;;;3.71;100.00;100446.31;10584702;27;20032;-73
2022/11/18 11:27:22;;;;;;;40.50;20.13;;;;;;;3.76;100.00;100462.00;10584191;27;20529;-73
2022/11/18 11:32:38;;;;;;;37.92;17.75;;;;;;;3.74;100.00;100467.69;10584188;27;20112;-74
2022/11/18 11:38:18;;;;;;;38.53;18.15;;;;;;;3.62;100.00;100445.75;10580114;28;20040;-73
2022/11/18 11:43:39;;;;;;;30.95;16.02;;;;;;;3.87;100.00;100482.25;10540581;28;20050;-74
2022/11/18 11:48:46;;;;;;;32.17;17.05;;;;;;;3.84;100.00;100487.09;10541171;28;20040;-73
2022/11/18 11:53:56;;;;;;;34.80;18.90;;;;;;;3.73;100.00;100484.22;10579662;28;20444;-76
2022/11/18 11:59:02;;;;;;;34.55;16.15;;;;;;;3.64;100.00;100491.81;10547458;28;20036;-73
2022/11/18 12:04:40;;;;;;;32.03;15.85;;;;;;;3.57;100.00;100494.56;10564618;28;20055;-73
2022/11/18 12:10:01;;;;;;;31.48;16.08;;;;;;;3.59;100.00;100494.34;10564019;28;20046;-73
2022/11/18 12:15:18;;;;;;;34.22;19.25;;;;;;;3.32;100.00;100483.59;10581661;28;20043;-73
2022/11/18 12:20:39;;;;;;;32.78;15.65;;;;;;;3.36;100.00;100517.47;10563648;28;20040;-73
2022/11/18 12:25:50;;;;;;;39.45;18.33;;;;;;;3.21;100.00;100487.00;10547447;28;20131;-73
2022/11/18 12:31:16;;;;;;;45.17;19.70;;;;;;;3.25;100.00;100510.00;10582823;28;20051;-73
2022/11/18 12:36:34;;;;;;;39.47;20.58;;;;;;;3.08;100.00;100497.91;10580884;28;20142;-73
2022/11/18 12:46:58;;;;;;;44.65;21.65;;;;;;;3.15;100.00;100520.50;10581114;28;20043;-73
2022/11/18 12:51:59;;;;;;;38.30;19.88;;;;;;;3.02;100.00;100522.19;10565065;28;20047;-73
2022/11/18 12:57:02;;;;;;;41.28;18.25;;;;;;;3.00;100.00;100531.63;10564476;28;20058;-72
2022/11/18 13:02:09;;;;;;;37.53;18.77;;;;;;;2.94;100.00;100541.47;10580754;28;20039;-73
2022/11/18 13:08:11;;;;;;;;;;;;;;;2.95;100.00;100548.56;10577289;28;20031;-73
2022/11/18 13:12:33;;;;;;;34.80;17.73;;;;;;;2.86;100.00;100549.03;10564167;28;19927;-72
2022/11/18 13:17:57;;;;;;;36.25;18.15;;;;;;;2.70;100.00;100531.25;10580589;28;20055;-73
2022/11/18 13:28:28;;;;;;;40.28;18.90;;;;;;;2.65;100.00;100564.50;10564551;28;20066;-73
2022/11/18 13:33:31;;;;;;;39.33;16.98;;;;;;;2.25;100.00;100510.16;10561839;28;20080;-73
2022/11/18 13:38:32;;;;;;;34.72;16.75;;;;;;;2.52;100.00;100559.91;10546078;28;20032;-72
2022/11/18 13:43:35;;;;;;;35.58;17.50;;;;;;;2.59;100.00;100574.31;10579313;28;20431;-72
2022/11/18 13:48:36;;;;;;;37.55;17.42;;;;;;;2.22;100.00;100516.84;10562078;28;20032;-72
2022/11/18 13:53:37;;;;;;;37.65;18.63;;;;;;;2.56;100.00;100580.19;10544508;28;20061;-72
2022/11/18 13:58:42;;;;;;;36.88;18.95;;;;;;;2.47;100.00;100567.00;10543973;28;20031;-72
2022/11/18 14:03:52;;;;;;;39.13;19.85;;;;;;;2.53;100.00;100591.47;10561518;28;20050;-72
2022/11/18 14:09:23;;;;;;;44.22;20.52;;;;;;;2.45;100.00;100590.84;10578962;28;20055;-73
2022/11/18 14:14:34;;;;;;;45.47;21.80;;;;;;;2.44;100.00;100598.16;10578655;28;20469;-73
2022/11/18 14:19:34;;;;;;;49.08;23.05;;;;;;;2.39;100.00;100597.94;10549143;28;20099;-73
2022/11/18 14:24:34;;;;;;;42.65;22.50;;;;;;;2.37;100.00;100605.47;10551362;28;20043;-73
2022/11/18 14:29:35;;;;;;;50.45;22.73;;;;;;;2.29;100.00;100603.75;10562563;28;20042;-73
2022/11/18 14:34:35;;;;;;;40.67;20.73;;;;;;;2.32;100.00;100613.41;10552401;28;20036;-73
2022/11/18 14:39:36;;;;;;;42.80;19.45;;;;;;;2.28;100.00;100612.16;10569173;28;20028;-72
2022/11/18 14:44:37;;;;;;;42.33;21.02;;;;;;;2.24;100.00;100621.75;10549593;28;20065;-73
2022/11/18 14:49:37;;;;;;;40.15;19.05;;;;;;;2.25;100.00;100631.56;10550251;28;20031;-73
2022/11/18 14:54:38;;;;;;;39.75;19.88;;;;;;;2.22;100.00;100646.38;10566831;28;20426;-74
2022/11/18 14:59:38;;;;;;;40.92;19.25;;;;;;;1.72;100.00;100592.34;10566802;28;20188;-70
2022/11/18 15:04:39;;;;;;;34.75;17.83;;;;;;;2.12;100.00;100663.06;10585822;28;20048;-73
2022/11/18 15:09:40;;;;;;;33.35;17.52;;;;;;;2.07;100.00;100664.72;10584157;28;20057;-73
2022/11/18 15:14:41;;;;;;;36.58;18.75;;;;;;;2.09;100.00;100671.63;10565810;28;20089;-73
2022/11/18 15:19:41;;;;;;;33.03;17.25;;;;;;;2.02;100.00;100673.47;10583529;28;20024;-73
2022/11/18 15:24:41;;;;;;;34.00;18.00;;;;;;;1.72;100.00;100646.63;10565777;28;20043;-73
2022/11/18 15:29:42;;;;;;;32.80;16.60;;;;;;;1.97;100.00;100701.25;10583741;28;20031;-73
2022/11/18 15:34:42;;;;;;;34.85;17.10;;;;;;;1.91;100.00;100703.94;10584342;28;20032;-73
2022/11/18 15:39:43;;;;;;;30.38;15.82;;;;;;;1.79;100.00;100706.38;10546148;28;20119;-72
2022/11/18 15:44:44;;;;;;;27.73;15.68;;;;;;;1.90;100.00;100729.38;10560168;27;20032;-72
2022/11/18 15:49:44;;;;;;;29.70;16.10;;;;;;;1.83;100.00;100729.34;10547372;28;20128;-72
2022/11/18 15:54:45;;;;;;;28.30;15.63;;;;;;;1.91;100.00;100741.94;10564634;28;20085;-72
2022/11/18 15:59:46;;;;;;;30.17;17.75;;;;;;;1.93;100.00;100750.72;10564743;28;20043;-72
2022/11/18 16:04:46;;;;;;;31.63;17.98;;;;;;;1.89;100.00;100755.72;10548216;28;20092;-72
2022/11/18 16:20:26;;;;;;;34.78;20.25;;;;;;;1.86;100.00;100747.97;10580324;28;20392;-73
2022/11/18 16:25:26;;;;;;;32.75;19.85;;;;;;;1.89;100.00;100752.16;10530148;28;20039;-72
2022/11/18 16:35:47;;;;;;;37.60;21.67;;;;;;;1.89;100.00;100760.31;10552166;28;20503;-73
2022/11/18 16:40:54;;;;;;;36.58;22.67;;;;;;;1.90;100.00;100783.69;10562353;28;20055;-72
2022/11/18 16:45:54;;;;;;;38.10;22.40;;;;;;;1.86;100.00;100776.97;10579824;28;20038;-72
2022/11/18 16:51:19;;;;;;;38.38;23.38;;;;;;;1.77;100.00;100789.88;10579680;28;20510;-72
2022/11/18 16:56:21;;;;;;;41.60;24.15;;;;;;;1.81;100.00;100799.28;10515754;28;20082;-72
2022/11/18 17:01:21;;;;;;;41.45;23.75;;;;;;;1.78;100.00;100814.13;10524283;28;20032;-72
2022/11/18 17:06:22;;;;;;;42.53;24.60;;;;;;;1.63;100.00;100807.94;10544060;28;20116;-72
2022/11/18 17:11:23;;;;;;;38.45;22.48;;;;;;;1.51;100.00;100813.06;10534740;28;20047;-72
2022/11/18 17:16:23;;;;;;;40.38;22.75;;;;;;;1.49;100.00;100833.28;10519100;28;20079;-72
2022/11/18 17:21:25;;;;;;;45.30;24.05;;;;;;;1.45;100.00;100838.28;10522816;28;20077;-72
2022/11/18 17:26:26;;;;;;;45.08;23.98;;;;;;;1.47;100.00;100843.47;10535253;28;20054;-72
2022/11/18 17:31:27;;;;;;;47.88;25.98;;;;;;;1.38;100.00;100849.03;10546621;27;20031;-72
2022/11/18 17:36:27;;;;;;;49.92;27.42;;;;;;;1.22;100.00;100835.78;10580860;27;20039;-72
2022/11/18 17:46:47;;;;;;;48.47;26.95;;;;;;;1.16;100.00;100863.66;10609358;27;20122;-72
2022/11/18 17:51:49;;;;;;;48.53;27.73;;;;;;;1.15;100.00;100872.81;10618804;27;20035;-73
2022/11/18 17:56:53;;;;;;;45.72;25.27;;;;;;;1.12;100.00;100875.94;10630003;27;20102;-73
2022/11/18 18:01:53;;;;;;;44.15;23.90;;;;;;;1.06;100.00;100882.94;10601414;27;20560;-73
2022/11/18 18:06:54;;;;;;;41.97;23.23;;;;;;;1.03;100.00;100886.03;10586270;27;20032;-73
2022/11/18 18:11:54;;;;;;;42.15;23.52;;;;;;;0.87;100.00;100878.97;10587036;27;20023;-74
2022/11/18 18:16:55;;;;;;;43.80;24.07;;;;;;;0.95;100.00;100894.28;10602105;27;20089;-73
2022/11/18 18:21:55;;;;;;;41.08;22.83;;;;;;;0.96;100.00;100901.38;10586882;27;20350;-73
2022/11/18 18:26:56;;;;;;;36.78;22.00;;;;;;;0.87;100.00;100892.53;10585703;27;20035;-73
2022/11/18 18:31:57;;;;;;;35.22;20.23;;;;;;;1.03;100.00;100934.00;10586756;27;20035;-72
2022/11/18 18:36:57;;;;;;;41.42;23.08;;;;;;;1.08;100.00;100935.13;10584401;27;20364;-73
2022/11/18 18:41:59;;;;;;;39.70;22.08;;;;;;;1.08;100.00;100920.72;10584968;27;20044;-70
2022/11/18 18:46:59;;;;;;;41.70;23.10;;;;;;;1.15;100.00;100946.03;10587115;27;20043;-72
2022/11/18 18:52:00;;;;;;;40.13;22.30;;;;;;;1.15;100.00;100946.88;10582734;27;20051;-73
2022/11/18 18:57:01;;;;;;;35.88;19.83;;;;;;;1.15;100.00;100954.16;10586342;27;20040;-73
2022/11/18 19:02:02;;;;;;;36.20;22.15;;;;;;;1.10;100.00;100956.63;10586016;27;20032;-73
2022/11/18 19:07:02;;;;;;;30.45;17.90;;;;;;;1.08;100.00;100970.38;10582796;27;20058;-73
2022/11/18 19:17:22;;;;;;;21.92;11.82;;;;;;;0.46;100.00;100922.00;10585954;28;20051;-72
2022/11/18 19:22:23;;;;;;;17.40;11.68;;;;;;;0.71;100.00;100971.34;10585959;27;20035;-73
2022/11/18 19:27:23;;;;;;;16.42;9.27;;;;;;;0.71;100.00;100979.47;10566342;27;20077;-73
2022/11/18 19:32:24;;;;;;;16.73;9.75;;;;;;;0.70;100.00;100981.31;10583250;28;20032;-73
2022/11/18 19:37:25;;;;;;;15.23;9.80;;;;;;;0.65;100.00;100972.91;10565176;28;20115;-73
2022/11/18 19:42:25;;;;;;;15.93;9.35;;;;;;;0.66;100.00;100987.28;10584286;27;20059;-74
2022/11/18 19:47:26;;;;;;;12.20;7.90;;;;;;;0.66;100.00;100993.53;10585327;27;20035;-73
2022/11/18 19:52:27;;;;;;;11.80;7.82;;;;;;;0.59;100.00;100988.03;10607693;27;20031;-74
2022/11/18 19:57:27;;;;;;;13.35;7.38;;;;;;;0.59;100.00;100993.47;10622570;27;20174;-73
2022/11/18 20:02:28;;;;;;;13.07;6.45;;;;;;;0.60;100.00;100989.75;10623478;27;20140;-72
2022/11/18 20:07:28;;;;;;;9.35;6.80;;;;;;;0.47;100.00;100973.28;10593557;27;20047;-74
2022/11/18 20:12:29;;;;;;;8.52;5.85;;;;;;;0.63;100.00;101001.22;10537398;27;20040;-73
2022/11/18 20:17:29;;;;;;;7.95;5.28;;;;;;;0.60;100.00;100999.75;10581047;28;20065;-73
2022/11/18 20:22:30;;;;;;;7.78;5.50;;;;;;;0.56;100.00;100999.25;10582921;27;20065;-73
2022/11/18 20:27:30;;;;;;;7.78;5.20;;;;;;;0.64;100.00;101002.91;10581399;27;20024;-73
2022/11/18 20:32:31;;;;;;;7.80;4.57;;;;;;;0.64;100.00;101003.75;10542310;27;20042;-72
2022/11/18 20:37:31;;;;;;;7.55;4.95;;;;;;;0.64;100.00;101017.31;10576978;27;20039;-73
2022/11/18 20:47:51;;;;;;;6.80;4.25;;;;;;;0.56;100.00;101004.69;10620128;27;20035;-73
2022/11/18 20:52:52;;;;;;;8.07;4.68;;;;;;;0.48;100.00;101007.47;10578277;27;20039;-73
2022/11/18 20:57:52;;;;;;;6.05;4.20;;;;;;;0.61;100.00;101036.63;10619603;27;20043;-73
2022/11/18 21:02:54;;;;;;;7.00;4.70;;;;;;;0.50;100.00;101021.69;10603436;27;20047;-74
2022/11/18 21:07:55;;;;;;;6.40;4.35;;;;;;;0.60;100.00;101037.66;10603827;27;20046;-73
2022/11/18 21:18:14;;;;;;;5.30;3.73;;;;;;;0.55;100.00;101043.63;10622146;27;20119;-73
2022/11/18 21:23:15;;;;;;;7.15;4.18;;;;;;;0.62;100.00;101053.72;10622429;27;20438;-72
2022/11/18 21:28:15;;;;;;;5.85;3.40;;;;;;;0.55;100.00;101050.91;10623504;27;20084;-73
2022/11/18 21:33:16;;;;;;;5.72;3.33;;;;;;;0.59;100.00;101063.91;10612206;27;20054;-73
2022/11/18 21:38:16;;;;;;;5.10;3.67;;;;;;;0.57;100.00;101060.53;10627662;27;20050;-73
2022/11/18 21:43:17;;;;;;;5.20;3.05;;;;;;;0.40;100.00;101043.59;10601432;27;20032;-73
2022/11/18 21:48:17;;;;;;;5.32;3.63;;;;;;;0.53;100.00;101070.06;10588857;27;20032;-73
2022/11/18 21:53:18;;;;;;;4.43;2.90;;;;;;;0.56;100.00;101075.13;10587429;27;20046;-69
2022/11/18 21:58:19;;;;;;;4.45;2.85;;;;;;;0.49;100.00;101074.16;10584341;27;21098;-74
2022/11/18 22:03:19;;;;;;;4.03;2.63;;;;;;;0.40;100.00;101064.44;10585662;27;20040;-73
2022/11/18 22:08:20;;;;;;;4.95;2.92;;;;;;;0.58;100.00;101083.91;10608301;27;20445;-73
2022/11/18 22:13:20;;;;;;;6.03;3.30;;;;;;;0.56;100.00;101096.78;10601666;27;20027;-74
2022/11/18 22:18:21;;;;;;;4.53;2.07;;;;;;;0.52;100.00;101086.50;10591936;27;20035;-74
2022/11/18 22:23:21;;;;;;;4.67;2.57;;;;;;;0.53;100.00;101091.72;10628783;27;20053;-73
2022/11/18 22:28:22;;;;;;;3.70;2.43;;;;;;;0.53;100.00;101097.16;10580180;27;20031;-73
2022/11/18 22:33:23;;;;;;;4.13;2.40;;;;;;;0.44;100.00;101098.25;10568506;28;20444;-72
2022/11/18 22:38:23;;;;;;;3.67;2.77;;;;;;;0.31;100.00;101092.59;10569679;27;20055;-71
2022/11/18 22:43:23;;;;;;;5.00;2.60;;;;;;;0.32;100.00;101116.78;10584528;27;20043;-72
2022/11/18 22:48:24;;;;;;;3.15;1.92;;;;;;;0.20;100.00;101121.78;10587129;27;20035;-72
2022/11/18 22:53:25;;;;;;;4.93;3.37;;;;;;;0.16;100.00;101123.16;10598954;27;20040;-73
2022/11/18 22:58:25;;;;;;;3.77;2.57;;;;;;;0.08;100.00;101131.34;10567289;27;20042;-72
2022/11/18 23:03:26;;;;;;;4.20;2.30;;;;;;;0.01;100.00;101140.38;10585976;27;20140;-72
2022/11/18 23:08:29;;;;;;;8.70;3.47;;;;;;;-0.13;100.00;101158.19;10586167;28;20095;-73
2022/11/18 23:18:49;;;;;;;4.03;2.63;;;;;;;-0.29;100.00;101164.53;10585568;27;20031;-73
2022/11/18 23:23:49;;;;;;;4.23;3.03;;;;;;;-0.50;100.00;101154.31;10542104;27;20043;-74
2022/11/18 23:28:50;;;;;;;4.50;3.07;;;;;;;-0.44;100.00;101186.91;10582638;27;20043;-73
2022/11/18 23:33:50;;;;;;;5.27;3.37;;;;;;;-0.59;100.00;101172.41;10581594;27;20043;-72
2022/11/18 23:38:51;;;;;;;5.00;3.03;;;;;;;-0.52;100.00;101183.38;10583410;27;20559;-73
2022/11/18 23:43:53;;;;;;;4.67;3.07;;;;;;;-0.51;100.00;101209.44;10583325;27;20047;-72
2022/11/18 23:48:53;;;;;;;5.00;3.17;;;;;;;-0.60;100.00;101192.34;10582551;28;20096;-73
2022/11/18 23:53:55;;;;;;;4.60;3.13;;;;;;;-0.55;100.00;101197.28;10562446;27;20058;-69